sensor_id;sensor_type;location;lat;lon;timestamp;temperature;humidity
1453;DHT22;720;47.738;7.998;2023-04-24T00:02:04;10.60;99.90
1453;DHT22;720;47.738;7.998;2023-04-24T00:04:32;10.60;99.90
1453;DHT22;720;47.738;7.998;2023-04-24T00:06:57;10.60;99.90
1453;DHT22;720;47.738;7.998;2023-04-24T00:09:25;10.60;99.90
1453;DHT22;720;47.738;7.998;2023-04-24T00:11:52;10.70;99.90
1453;DHT22;720;47.738;7.998;2023-04-24T00:14:18;10.60;99.90
1453;DHT22;720;47.738;7.998;2023-04-24T00:16:43;10.70;99.90
1453;DHT22;720;47.738;7.998;2023-04-24T00:19:09;10.70;99.90
1453;DHT22;720;47.738;7.998;2023-04-24T00:21:34;10.70;99.90
1453;DHT22;720;47.738;7.998;2023-04-24T00:24:00;10.70;99.90
1453;DHT22;720;47.738;7.998;2023-04-24T00:26:26;10.70;99.90
1453;DHT22;720;47.738;7.998;2023-04-24T00:28:51;10.70;99.90
1453;DHT22;720;47.738;7.998;2023-04-24T00:31:17;10.70;99.90
1453;DHT22;720;47.738;7.998;2023-04-24T00:33:43;10.60;99.90
1453;DHT22;720;47.738;7.998;2023-04-24T00:36:08;10.60;99.90
1453;DHT22;720;47.738;7.998;2023-04-24T00:38:35;10.60;99.90
1453;DHT22;720;47.738;7.998;2023-04-24T00:41:00;10.40;99.90
1453;DHT22;720;47.738;7.998;2023-04-24T00:43:26;10.30;99.90
1453;DHT22;720;47.738;7.998;2023-04-24T00:45:51;10.30;99.90
1453;DHT22;720;47.738;7.998;2023-04-24T00:48:18;10.30;99.90
1453;DHT22;720;47.738;7.998;2023-04-24T00:50:44;10.40;99.90
1453;DHT22;720;47.738;7.998;2023-04-24T00:53:10;10.30;99.90
1453;DHT22;720;47.738;7.998;2023-04-24T00:55:36;10.40;99.90
1453;DHT22;720;47.738;7.998;2023-04-24T00:58:03;10.40;99.90
1453;DHT22;720;47.738;7.998;2023-04-24T01:00:28;10.50;99.90
1453;DHT22;720;47.738;7.998;2023-04-24T01:02:55;10.70;99.90
1453;DHT22;720;47.738;7.998;2023-04-24T01:05:22;10.50;99.90
1453;DHT22;720;47.738;7.998;2023-04-24T01:07:48;10.50;99.90
1453;DHT22;720;47.738;7.998;2023-04-24T01:10:15;10.50;99.90
1453;DHT22;720;47.738;7.998;2023-04-24T01:12:40;10.40;99.90
1453;DHT22;720;47.738;7.998;2023-04-24T01:15:07;9.80;99.90
1453;DHT22;720;47.738;7.998;2023-04-24T01:17:33;9.90;99.90
1453;DHT22;720;47.738;7.998;2023-04-24T01:20:00;10.00;99.90
1453;DHT22;720;47.738;7.998;2023-04-24T01:22:26;10.00;99.90
1453;DHT22;720;47.738;7.998;2023-04-24T01:24:52;10.10;99.90
1453;DHT22;720;47.738;7.998;2023-04-24T01:27:19;10.20;99.90
1453;DHT22;720;47.738;7.998;2023-04-24T01:29:45;10.20;99.90
1453;DHT22;720;47.738;7.998;2023-04-24T01:32:11;10.10;99.90
1453;DHT22;720;47.738;7.998;2023-04-24T01:34:37;10.20;99.90
1453;DHT22;720;47.738;7.998;2023-04-24T01:37:03;10.30;99.90
1453;DHT22;720;47.738;7.998;2023-04-24T01:39:30;10.20;99.90
1453;DHT22;720;47.738;7.998;2023-04-24T01:41:56;10.30;99.90
1453;DHT22;720;47.738;7.998;2023-04-24T01:44:22;10.30;99.90
1453;DHT22;720;47.738;7.998;2023-04-24T01:46:48;10.30;99.90
1453;DHT22;720;47.738;7.998;2023-04-24T01:49:14;10.30;99.90
1453;DHT22;720;47.738;7.998;2023-04-24T01:51:40;10.40;99.90
1453;DHT22;720;47.738;7.998;2023-04-24T01:54:06;10.40;99.90
1453;DHT22;720;47.738;7.998;2023-04-24T01:56:34;10.30;99.90
1453;DHT22;720;47.738;7.998;2023-04-24T01:59:03;10.30;99.90
1453;DHT22;720;47.738;7.998;2023-04-24T02:01:34;10.30;99.90
1453;DHT22;720;47.738;7.998;2023-04-24T02:04:01;10.30;99.90
1453;DHT22;720;47.738;7.998;2023-04-24T02:06:27;10.30;99.90
1453;DHT22;720;47.738;7.998;2023-04-24T02:08:53;10.30;99.90
1453;DHT22;720;47.738;7.998;2023-04-24T02:11:18;10.20;99.90
1453;DHT22;720;47.738;7.998;2023-04-24T02:13:44;10.30;99.90
1453;DHT22;720;47.738;7.998;2023-04-24T02:16:10;10.20;99.90
1453;DHT22;720;47.738;7.998;2023-04-24T02:18:36;10.20;99.90
1453;DHT22;720;47.738;7.998;2023-04-24T02:21:01;10.10;99.90
1453;DHT22;720;47.738;7.998;2023-04-24T02:23:27;10.10;99.90
1453;DHT22;720;47.738;7.998;2023-04-24T02:25:53;10.10;99.90
1453;DHT22;720;47.738;7.998;2023-04-24T02:28:19;10.10;99.90
1453;DHT22;720;47.738;7.998;2023-04-24T02:30:45;10.00;99.90
1453;DHT22;720;47.738;7.998;2023-04-24T02:33:11;10.00;99.90
1453;DHT22;720;47.738;7.998;2023-04-24T02:35:37;10.00;99.90
1453;DHT22;720;47.738;7.998;2023-04-24T02:38:03;10.10;99.90
1453;DHT22;720;47.738;7.998;2023-04-24T02:40:29;10.10;99.90
1453;DHT22;720;47.738;7.998;2023-04-24T02:42:55;10.20;99.90
1453;DHT22;720;47.738;7.998;2023-04-24T02:45:21;10.20;99.90
1453;DHT22;720;47.738;7.998;2023-04-24T02:47:46;10.20;99.90
1453;DHT22;720;47.738;7.998;2023-04-24T02:50:12;10.20;99.90
1453;DHT22;720;47.738;7.998;2023-04-24T02:52:37;10.20;99.90
1453;DHT22;720;47.738;7.998;2023-04-24T02:55:03;10.10;99.90
1453;DHT22;720;47.738;7.998;2023-04-24T02:57:29;10.00;99.90
1453;DHT22;720;47.738;7.998;2023-04-24T02:59:55;9.90;99.90
1453;DHT22;720;47.738;7.998;2023-04-24T03:02:21;9.80;99.90
1453;DHT22;720;47.738;7.998;2023-04-24T03:04:46;9.80;99.90
1453;DHT22;720;47.738;7.998;2023-04-24T03:07:13;9.80;99.90
1453;DHT22;720;47.738;7.998;2023-04-24T03:09:40;9.80;99.90
1453;DHT22;720;47.738;7.998;2023-04-24T03:12:06;9.90;99.90
1453;DHT22;720;47.738;7.998;2023-04-24T03:14:31;9.80;99.90
1453;DHT22;720;47.738;7.998;2023-04-24T03:16:57;9.90;99.90
1453;DHT22;720;47.738;7.998;2023-04-24T03:19:23;9.90;99.90
1453;DHT22;720;47.738;7.998;2023-04-24T03:21:49;9.80;99.90
1453;DHT22;720;47.738;7.998;2023-04-24T03:24:14;9.60;99.90
1453;DHT22;720;47.738;7.998;2023-04-24T03:26:40;9.50;99.90
1453;DHT22;720;47.738;7.998;2023-04-24T03:29:06;9.60;99.90
1453;DHT22;720;47.738;7.998;2023-04-24T03:31:31;9.80;99.90
1453;DHT22;720;47.738;7.998;2023-04-24T03:33:57;9.90;99.90
1453;DHT22;720;47.738;7.998;2023-04-24T03:36:22;9.90;99.90
1453;DHT22;720;47.738;7.998;2023-04-24T03:38:48;9.90;99.90
1453;DHT22;720;47.738;7.998;2023-04-24T03:41:14;9.90;99.90
1453;DHT22;720;47.738;7.998;2023-04-24T03:43:40;9.90;99.90
1453;DHT22;720;47.738;7.998;2023-04-24T03:46:05;9.90;99.90
1453;DHT22;720;47.738;7.998;2023-04-24T03:48:32;9.80;99.90
1453;DHT22;720;47.738;7.998;2023-04-24T03:50:57;9.90;99.90
1453;DHT22;720;47.738;7.998;2023-04-24T03:53:23;9.70;99.90
1453;DHT22;720;47.738;7.998;2023-04-24T03:55:49;9.60;99.90
1453;DHT22;720;47.738;7.998;2023-04-24T03:58:14;9.70;99.90
1453;DHT22;720;47.738;7.998;2023-04-24T04:00:40;9.60;99.90
1453;DHT22;720;47.738;7.998;2023-04-24T04:03:06;9.50;99.90
1453;DHT22;720;47.738;7.998;2023-04-24T04:05:32;9.60;99.90
1453;DHT22;720;47.738;7.998;2023-04-24T04:07:57;9.60;99.90
1453;DHT22;720;47.738;7.998;2023-04-24T04:10:23;9.50;99.90
1453;DHT22;720;47.738;7.998;2023-04-24T04:12:49;9.30;99.90
1453;DHT22;720;47.738;7.998;2023-04-24T04:15:15;9.50;99.90
1453;DHT22;720;47.738;7.998;2023-04-24T04:17:40;9.50;99.90
1453;DHT22;720;47.738;7.998;2023-04-24T04:20:06;9.50;99.90
1453;DHT22;720;47.738;7.998;2023-04-24T04:22:36;9.50;99.90
1453;DHT22;720;47.738;7.998;2023-04-24T04:25:02;9.50;99.90
1453;DHT22;720;47.738;7.998;2023-04-24T04:27:28;9.30;99.90
1453;DHT22;720;47.738;7.998;2023-04-24T04:30:00;9.10;99.90
1453;DHT22;720;47.738;7.998;2023-04-24T04:32:33;9.10;99.90
1453;DHT22;720;47.738;7.998;2023-04-24T04:35:00;9.20;99.90
1453;DHT22;720;47.738;7.998;2023-04-24T04:37:29;9.20;99.90
1453;DHT22;720;47.738;7.998;2023-04-24T04:39:55;9.30;99.90
1453;DHT22;720;47.738;7.998;2023-04-24T04:42:21;9.30;99.90
1453;DHT22;720;47.738;7.998;2023-04-24T04:44:47;9.10;99.90
1453;DHT22;720;47.738;7.998;2023-04-24T04:47:12;8.90;99.90
1453;DHT22;720;47.738;7.998;2023-04-24T04:49:38;8.80;99.90
1453;DHT22;720;47.738;7.998;2023-04-24T04:52:04;8.90;99.90
1453;DHT22;720;47.738;7.998;2023-04-24T04:54:30;8.90;99.90
1453;DHT22;720;47.738;7.998;2023-04-24T04:56:56;9.00;99.90
1453;DHT22;720;47.738;7.998;2023-04-24T04:59:22;9.10;99.90
1453;DHT22;720;47.738;7.998;2023-04-24T05:01:48;9.20;99.90
1453;DHT22;720;47.738;7.998;2023-04-24T05:04:13;9.10;99.90
1453;DHT22;720;47.738;7.998;2023-04-24T05:06:39;9.10;99.90
1453;DHT22;720;47.738;7.998;2023-04-24T05:09:05;9.10;99.90
1453;DHT22;720;47.738;7.998;2023-04-24T05:11:32;9.00;99.90
1453;DHT22;720;47.738;7.998;2023-04-24T05:13:58;9.00;99.90
1453;DHT22;720;47.738;7.998;2023-04-24T05:16:23;9.10;99.90
1453;DHT22;720;47.738;7.998;2023-04-24T05:18:49;9.20;99.90
1453;DHT22;720;47.738;7.998;2023-04-24T05:21:15;9.30;99.90
1453;DHT22;720;47.738;7.998;2023-04-24T05:23:40;9.30;99.90
1453;DHT22;720;47.738;7.998;2023-04-24T05:26:06;9.50;99.90
1453;DHT22;720;47.738;7.998;2023-04-24T05:28:32;9.40;99.90
1453;DHT22;720;47.738;7.998;2023-04-24T05:30:57;9.30;99.90
1453;DHT22;720;47.738;7.998;2023-04-24T05:33:24;9.30;99.90
1453;DHT22;720;47.738;7.998;2023-04-24T05:35:50;9.20;99.90
1453;DHT22;720;47.738;7.998;2023-04-24T05:38:16;9.10;99.90
1453;DHT22;720;47.738;7.998;2023-04-24T05:40:45;8.80;99.90
1453;DHT22;720;47.738;7.998;2023-04-24T05:43:10;8.80;99.90
1453;DHT22;720;47.738;7.998;2023-04-24T05:45:36;8.80;99.90
1453;DHT22;720;47.738;7.998;2023-04-24T05:48:03;9.00;99.90
1453;DHT22;720;47.738;7.998;2023-04-24T05:50:28;9.00;99.90
1453;DHT22;720;47.738;7.998;2023-04-24T05:52:54;9.00;99.90
1453;DHT22;720;47.738;7.998;2023-04-24T05:55:20;8.90;99.90
1453;DHT22;720;47.738;7.998;2023-04-24T05:57:46;9.00;99.90
1453;DHT22;720;47.738;7.998;2023-04-24T06:00:12;9.10;99.90
1453;DHT22;720;47.738;7.998;2023-04-24T06:02:38;9.00;99.90
1453;DHT22;720;47.738;7.998;2023-04-24T06:05:04;9.10;99.90
1453;DHT22;720;47.738;7.998;2023-04-24T06:07:31;9.30;99.90
1453;DHT22;720;47.738;7.998;2023-04-24T06:09:57;9.50;99.90
1453;DHT22;720;47.738;7.998;2023-04-24T06:12:23;9.70;99.90
1453;DHT22;720;47.738;7.998;2023-04-24T06:14:48;9.90;99.90
1453;DHT22;720;47.738;7.998;2023-04-24T06:17:15;9.90;99.90
1453;DHT22;720;47.738;7.998;2023-04-24T06:19:40;9.80;99.90
1453;DHT22;720;47.738;7.998;2023-04-24T06:22:06;9.70;99.90
1453;DHT22;720;47.738;7.998;2023-04-24T06:24:31;9.80;99.90
1453;DHT22;720;47.738;7.998;2023-04-24T06:26:59;9.70;99.30
1453;DHT22;720;47.738;7.998;2023-04-24T06:29:27;9.70;99.80
1453;DHT22;720;47.738;7.998;2023-04-24T06:31:53;9.70;99.40
1453;DHT22;720;47.738;7.998;2023-04-24T06:34:19;9.80;99.60
1453;DHT22;720;47.738;7.998;2023-04-24T06:36:46;9.80;99.10
1453;DHT22;720;47.738;7.998;2023-04-24T06:39:12;9.70;99.00
1453;DHT22;720;47.738;7.998;2023-04-24T06:41:38;9.60;99.70
1453;DHT22;720;47.738;7.998;2023-04-24T06:44:03;9.30;99.90
1453;DHT22;720;47.738;7.998;2023-04-24T06:46:29;9.00;99.90
1453;DHT22;720;47.738;7.998;2023-04-24T06:48:55;8.80;99.90
1453;DHT22;720;47.738;7.998;2023-04-24T06:51:23;8.70;99.90
1453;DHT22;720;47.738;7.998;2023-04-24T06:53:51;8.80;99.90
1453;DHT22;720;47.738;7.998;2023-04-24T06:56:17;8.70;99.90
1453;DHT22;720;47.738;7.998;2023-04-24T06:58:43;8.30;99.90
1453;DHT22;720;47.738;7.998;2023-04-24T07:01:09;8.30;99.90
1453;DHT22;720;47.738;7.998;2023-04-24T07:03:35;8.50;99.90
1453;DHT22;720;47.738;7.998;2023-04-24T07:06:01;8.80;99.90
1453;DHT22;720;47.738;7.998;2023-04-24T07:08:29;8.90;99.90
1453;DHT22;720;47.738;7.998;2023-04-24T07:10:56;9.10;99.90
1453;DHT22;720;47.738;7.998;2023-04-24T07:13:22;9.40;99.90
1453;DHT22;720;47.738;7.998;2023-04-24T07:15:48;10.00;99.90
1453;DHT22;720;47.738;7.998;2023-04-24T07:18:19;10.50;96.60
1453;DHT22;720;47.738;7.998;2023-04-24T07:20:45;10.90;96.70
1453;DHT22;720;47.738;7.998;2023-04-24T07:23:11;11.20;95.00
1453;DHT22;720;47.738;7.998;2023-04-24T07:25:36;11.40;94.50
1453;DHT22;720;47.738;7.998;2023-04-24T07:28:03;11.40;94.70
1453;DHT22;720;47.738;7.998;2023-04-24T07:30:30;11.60;94.50
1453;DHT22;720;47.738;7.998;2023-04-24T07:32:58;11.60;94.40
1453;DHT22;720;47.738;7.998;2023-04-24T07:35:24;11.70;93.10
1453;DHT22;720;47.738;7.998;2023-04-24T07:37:51;11.70;93.80
1453;DHT22;720;47.738;7.998;2023-04-24T07:40:18;11.60;93.80
1453;DHT22;720;47.738;7.998;2023-04-24T07:45:10;11.70;97.30
1453;DHT22;720;47.738;7.998;2023-04-24T07:47:35;12.00;96.00
1453;DHT22;720;47.738;7.998;2023-04-24T07:50:02;12.00;93.30
1453;DHT22;720;47.738;7.998;2023-04-24T07:52:28;11.90;94.00
1453;DHT22;720;47.738;7.998;2023-04-24T07:54:55;12.10;93.10
1453;DHT22;720;47.738;7.998;2023-04-24T07:57:24;12.20;92.30
1453;DHT22;720;47.738;7.998;2023-04-24T07:59:50;12.50;92.50
1453;DHT22;720;47.738;7.998;2023-04-24T08:02:16;12.70;90.80
1453;DHT22;720;47.738;7.998;2023-04-24T08:04:42;12.30;90.80
1453;DHT22;720;47.738;7.998;2023-04-24T08:07:08;12.00;90.80
1453;DHT22;720;47.738;7.998;2023-04-24T08:09:33;11.90;92.00
1453;DHT22;720;47.738;7.998;2023-04-24T08:11:59;12.30;91.60
1453;DHT22;720;47.738;7.998;2023-04-24T08:14:25;12.70;91.10
1453;DHT22;720;47.738;7.998;2023-04-24T08:16:52;12.80;90.40
1453;DHT22;720;47.738;7.998;2023-04-24T08:19:17;12.50;90.00
1453;DHT22;720;47.738;7.998;2023-04-24T08:21:43;12.30;90.70
1453;DHT22;720;47.738;7.998;2023-04-24T08:24:09;12.30;90.20
1453;DHT22;720;47.738;7.998;2023-04-24T08:26:34;12.10;90.10
1453;DHT22;720;47.738;7.998;2023-04-24T08:29:00;11.80;90.50
1453;DHT22;720;47.738;7.998;2023-04-24T08:31:26;11.50;90.80
1453;DHT22;720;47.738;7.998;2023-04-24T08:33:52;11.30;90.60
1453;DHT22;720;47.738;7.998;2023-04-24T08:36:17;11.50;91.00
1453;DHT22;720;47.738;7.998;2023-04-24T08:38:43;11.60;91.80
1453;DHT22;720;47.738;7.998;2023-04-24T08:41:09;11.70;91.20
1453;DHT22;720;47.738;7.998;2023-04-24T08:43:35;12.20;93.60
1453;DHT22;720;47.738;7.998;2023-04-24T08:46:04;12.80;93.20
1453;DHT22;720;47.738;7.998;2023-04-24T08:48:30;13.30;92.00
1453;DHT22;720;47.738;7.998;2023-04-24T08:50:57;13.70;90.90
1453;DHT22;720;47.738;7.998;2023-04-24T08:53:25;14.00;90.30
1453;DHT22;720;47.738;7.998;2023-04-24T08:55:51;14.10;85.90
1453;DHT22;720;47.738;7.998;2023-04-24T08:58:19;13.60;83.10
1453;DHT22;720;47.738;7.998;2023-04-24T09:00:45;13.00;84.70
1453;DHT22;720;47.738;7.998;2023-04-24T09:03:16;12.30;86.10
1453;DHT22;720;47.738;7.998;2023-04-24T09:05:47;12.10;87.00
1453;DHT22;720;47.738;7.998;2023-04-24T09:08:13;11.90;86.40
1453;DHT22;720;47.738;7.998;2023-04-24T09:10:40;11.70;85.40
1453;DHT22;720;47.738;7.998;2023-04-24T09:13:06;11.80;85.70
1453;DHT22;720;47.738;7.998;2023-04-24T09:15:34;11.70;86.60
1453;DHT22;720;47.738;7.998;2023-04-24T09:18:00;11.10;87.90
1453;DHT22;720;47.738;7.998;2023-04-24T09:20:27;11.00;90.90
1453;DHT22;720;47.738;7.998;2023-04-24T09:22:57;10.80;90.70
1453;DHT22;720;47.738;7.998;2023-04-24T09:25:23;11.20;90.90
1453;DHT22;720;47.738;7.998;2023-04-24T09:27:53;11.60;88.80
1453;DHT22;720;47.738;7.998;2023-04-24T09:30:22;11.80;87.40
1453;DHT22;720;47.738;7.998;2023-04-24T09:32:48;12.60;86.70
1453;DHT22;720;47.738;7.998;2023-04-24T09:35:15;12.40;85.40
1453;DHT22;720;47.738;7.998;2023-04-24T09:37:44;12.40;85.50
1453;DHT22;720;47.738;7.998;2023-04-24T09:40:13;11.80;82.40
1453;DHT22;720;47.738;7.998;2023-04-24T09:42:40;10.80;84.90
1453;DHT22;720;47.738;7.998;2023-04-24T09:45:09;10.60;88.70
1453;DHT22;720;47.738;7.998;2023-04-24T09:47:40;10.70;88.40
1453;DHT22;720;47.738;7.998;2023-04-24T09:50:13;11.10;88.40
1453;DHT22;720;47.738;7.998;2023-04-24T09:52:41;12.10;85.40
1453;DHT22;720;47.738;7.998;2023-04-24T09:55:20;13.10;85.50
1453;DHT22;720;47.738;7.998;2023-04-24T09:57:53;13.90;81.50
1453;DHT22;720;47.738;7.998;2023-04-24T10:00:30;14.00;77.30
1453;DHT22;720;47.738;7.998;2023-04-24T10:03:00;13.40;89.30
1453;DHT22;720;47.738;7.998;2023-04-24T10:05:34;13.60;78.40
1453;DHT22;720;47.738;7.998;2023-04-24T10:08:02;13.40;78.00
1453;DHT22;720;47.738;7.998;2023-04-24T10:10:29;12.10;79.40
1453;DHT22;720;47.738;7.998;2023-04-24T10:12:55;10.40;91.00
1453;DHT22;720;47.738;7.998;2023-04-24T10:15:21;10.70;84.60
1453;DHT22;720;47.738;7.998;2023-04-24T10:17:48;10.10;85.70
1453;DHT22;720;47.738;7.998;2023-04-24T10:20:19;10.10;87.50
1453;DHT22;720;47.738;7.998;2023-04-24T10:22:51;10.20;86.80
1453;DHT22;720;47.738;7.998;2023-04-24T10:25:22;10.40;90.20
1453;DHT22;720;47.738;7.998;2023-04-24T10:27:49;10.80;90.20
1453;DHT22;720;47.738;7.998;2023-04-24T10:30:18;11.40;88.50
1453;DHT22;720;47.738;7.998;2023-04-24T10:32:44;11.90;85.20
1453;DHT22;720;47.738;7.998;2023-04-24T10:35:12;12.20;82.80
1453;DHT22;720;47.738;7.998;2023-04-24T10:37:45;12.60;83.70
1453;DHT22;720;47.738;7.998;2023-04-24T10:40:16;13.00;80.30
1453;DHT22;720;47.738;7.998;2023-04-24T10:42:42;12.70;81.10
1453;DHT22;720;47.738;7.998;2023-04-24T10:45:19;12.70;78.50
1453;DHT22;720;47.738;7.998;2023-04-24T10:50:28;13.20;76.70
1453;DHT22;720;47.738;7.998;2023-04-24T10:53:06;14.10;90.70
1453;DHT22;720;47.738;7.998;2023-04-24T10:55:47;14.00;79.00
1453;DHT22;720;47.738;7.998;2023-04-24T10:58:13;14.60;76.80
1453;DHT22;720;47.738;7.998;2023-04-24T11:00:40;15.10;77.00
1453;DHT22;720;47.738;7.998;2023-04-24T11:03:07;15.40;74.10
1453;DHT22;720;47.738;7.998;2023-04-24T11:08:23;14.90;72.40
1453;DHT22;720;47.738;7.998;2023-04-24T11:10:57;14.30;72.40
1453;DHT22;720;47.738;7.998;2023-04-24T11:13:24;13.90;72.80
1453;DHT22;720;47.738;7.998;2023-04-24T11:16:13;13.50;75.10
1453;DHT22;720;47.738;7.998;2023-04-24T11:18:42;13.10;76.90
1453;DHT22;720;47.738;7.998;2023-04-24T11:21:17;12.60;80.40
1453;DHT22;720;47.738;7.998;2023-04-24T11:23:43;12.40;76.90
1453;DHT22;720;47.738;7.998;2023-04-24T11:26:21;12.30;77.70
1453;DHT22;720;47.738;7.998;2023-04-24T11:28:52;12.60;77.40
1453;DHT22;720;47.738;7.998;2023-04-24T11:31:44;12.90;77.90
1453;DHT22;720;47.738;7.998;2023-04-24T11:34:15;13.40;78.30
1453;DHT22;720;47.738;7.998;2023-04-24T11:36:46;13.90;74.40
1453;DHT22;720;47.738;7.998;2023-04-24T11:39:13;14.00;73.40
1453;DHT22;720;47.738;7.998;2023-04-24T11:41:38;14.10;72.60
1453;DHT22;720;47.738;7.998;2023-04-24T11:44:09;13.60;75.00
1453;DHT22;720;47.738;7.998;2023-04-24T11:46:38;13.50;78.20
1453;DHT22;720;47.738;7.998;2023-04-24T11:49:05;13.30;76.80
1453;DHT22;720;47.738;7.998;2023-04-24T11:51:32;12.90;77.20
1453;DHT22;720;47.738;7.998;2023-04-24T11:53:58;12.90;76.70
1453;DHT22;720;47.738;7.998;2023-04-24T11:56:24;12.70;75.20
1453;DHT22;720;47.738;7.998;2023-04-24T11:58:53;12.80;79.40
1453;DHT22;720;47.738;7.998;2023-04-24T12:01:20;13.10;78.40
1453;DHT22;720;47.738;7.998;2023-04-24T12:03:59;13.30;79.40
1453;DHT22;720;47.738;7.998;2023-04-24T12:06:25;13.50;76.20
1453;DHT22;720;47.738;7.998;2023-04-24T12:08:52;13.80;79.60
1453;DHT22;720;47.738;7.998;2023-04-24T12:11:20;13.70;77.30
1453;DHT22;720;47.738;7.998;2023-04-24T12:13:46;14.00;75.20
1453;DHT22;720;47.738;7.998;2023-04-24T12:16:12;14.40;73.80
1453;DHT22;720;47.738;7.998;2023-04-24T12:18:42;14.30;73.90
1453;DHT22;720;47.738;7.998;2023-04-24T12:21:21;14.50;71.40
1453;DHT22;720;47.738;7.998;2023-04-24T12:23:48;14.60;72.90
1453;DHT22;720;47.738;7.998;2023-04-24T12:26:18;14.50;70.60
1453;DHT22;720;47.738;7.998;2023-04-24T12:28:47;14.40;71.90
1453;DHT22;720;47.738;7.998;2023-04-24T12:31:12;14.40;72.60
1453;DHT22;720;47.738;7.998;2023-04-24T12:33:38;14.50;70.90
1453;DHT22;720;47.738;7.998;2023-04-24T12:36:04;14.40;71.90
1453;DHT22;720;47.738;7.998;2023-04-24T12:38:31;14.10;71.30
1453;DHT22;720;47.738;7.998;2023-04-24T12:41:09;14.00;74.40
1453;DHT22;720;47.738;7.998;2023-04-24T12:43:35;14.00;72.30
1453;DHT22;720;47.738;7.998;2023-04-24T12:46:02;13.90;74.10
1453;DHT22;720;47.738;7.998;2023-04-24T12:48:28;13.70;72.70
1453;DHT22;720;47.738;7.998;2023-04-24T12:50:54;13.60;75.80
1453;DHT22;720;47.738;7.998;2023-04-24T12:53:21;13.50;71.90
1453;DHT22;720;47.738;7.998;2023-04-24T12:55:47;13.20;71.40
1453;DHT22;720;47.738;7.998;2023-04-24T12:58:19;13.10;73.10
1453;DHT22;720;47.738;7.998;2023-04-24T13:00:46;12.90;73.90
1453;DHT22;720;47.738;7.998;2023-04-24T13:03:12;12.80;73.80
1453;DHT22;720;47.738;7.998;2023-04-24T13:05:37;12.60;75.10
1453;DHT22;720;47.738;7.998;2023-04-24T13:08:03;12.30;77.90
1453;DHT22;720;47.738;7.998;2023-04-24T13:10:29;12.30;77.70
1453;DHT22;720;47.738;7.998;2023-04-24T13:12:55;12.10;84.80
1453;DHT22;720;47.738;7.998;2023-04-24T13:15:21;12.10;80.50
1453;DHT22;720;47.738;7.998;2023-04-24T13:17:47;12.00;79.30
1453;DHT22;720;47.738;7.998;2023-04-24T13:20:13;11.90;78.90
1453;DHT22;720;47.738;7.998;2023-04-24T13:22:38;12.00;79.90
1453;DHT22;720;47.738;7.998;2023-04-24T13:25:04;12.30;80.20
1453;DHT22;720;47.738;7.998;2023-04-24T13:27:31;12.60;78.70
1453;DHT22;720;47.738;7.998;2023-04-24T13:29:57;12.80;78.10
1453;DHT22;720;47.738;7.998;2023-04-24T13:32:22;12.90;77.90
1453;DHT22;720;47.738;7.998;2023-04-24T13:34:48;12.70;77.90
1453;DHT22;720;47.738;7.998;2023-04-24T13:37:14;12.60;78.90
1453;DHT22;720;47.738;7.998;2023-04-24T13:39:40;12.50;77.20
1453;DHT22;720;47.738;7.998;2023-04-24T13:42:06;12.40;78.20
1453;DHT22;720;47.738;7.998;2023-04-24T13:44:32;12.40;77.70
1453;DHT22;720;47.738;7.998;2023-04-24T13:46:58;12.50;80.20
1453;DHT22;720;47.738;7.998;2023-04-24T13:49:24;12.70;77.90
1453;DHT22;720;47.738;7.998;2023-04-24T13:51:51;12.60;77.30
1453;DHT22;720;47.738;7.998;2023-04-24T13:54:17;12.70;78.30
1453;DHT22;720;47.738;7.998;2023-04-24T13:56:42;12.50;77.40
1453;DHT22;720;47.738;7.998;2023-04-24T13:59:08;12.40;78.40
1453;DHT22;720;47.738;7.998;2023-04-24T14:01:34;12.60;78.00
1453;DHT22;720;47.738;7.998;2023-04-24T14:04:00;13.00;79.50
1453;DHT22;720;47.738;7.998;2023-04-24T14:06:26;13.10;76.40
1453;DHT22;720;47.738;7.998;2023-04-24T14:08:52;13.20;75.60
1453;DHT22;720;47.738;7.998;2023-04-24T14:11:19;13.20;78.00
1453;DHT22;720;47.738;7.998;2023-04-24T14:13:45;13.20;76.90
1453;DHT22;720;47.738;7.998;2023-04-24T14:16:11;13.30;77.10
1453;DHT22;720;47.738;7.998;2023-04-24T14:18:37;13.40;76.20
1453;DHT22;720;47.738;7.998;2023-04-24T14:21:03;13.30;75.50
1453;DHT22;720;47.738;7.998;2023-04-24T14:23:29;13.30;80.20
1453;DHT22;720;47.738;7.998;2023-04-24T14:25:56;13.30;84.30
1453;DHT22;720;47.738;7.998;2023-04-24T14:28:22;13.50;83.50
1453;DHT22;720;47.738;7.998;2023-04-24T14:30:48;13.70;83.70
1453;DHT22;720;47.738;7.998;2023-04-24T14:33:14;13.90;81.60
1453;DHT22;720;47.738;7.998;2023-04-24T14:35:40;14.20;82.50
1453;DHT22;720;47.738;7.998;2023-04-24T14:38:07;14.50;82.20
1453;DHT22;720;47.738;7.998;2023-04-24T14:40:33;14.80;81.20
1453;DHT22;720;47.738;7.998;2023-04-24T14:42:59;15.40;91.40
1453;DHT22;720;47.738;7.998;2023-04-24T14:45:25;15.10;78.40
1453;DHT22;720;47.738;7.998;2023-04-24T14:47:51;15.30;77.60
1453;DHT22;720;47.738;7.998;2023-04-24T14:50:17;15.40;77.20
1453;DHT22;720;47.738;7.998;2023-04-24T14:52:43;15.50;73.40
1453;DHT22;720;47.738;7.998;2023-04-24T14:55:09;15.20;68.70
1453;DHT22;720;47.738;7.998;2023-04-24T14:57:34;14.50;68.80
1453;DHT22;720;47.738;7.998;2023-04-24T15:00:02;14.00;69.50
1453;DHT22;720;47.738;7.998;2023-04-24T15:02:29;13.90;72.60
1453;DHT22;720;47.738;7.998;2023-04-24T15:04:54;13.70;71.50
1453;DHT22;720;47.738;7.998;2023-04-24T15:07:20;13.70;72.50
1453;DHT22;720;47.738;7.998;2023-04-24T15:09:45;13.30;72.90
1453;DHT22;720;47.738;7.998;2023-04-24T15:12:12;13.30;73.10
1453;DHT22;720;47.738;7.998;2023-04-24T15:14:38;13.30;74.70
1453;DHT22;720;47.738;7.998;2023-04-24T15:17:04;13.20;74.60
1453;DHT22;720;47.738;7.998;2023-04-24T15:19:29;13.30;75.40
1453;DHT22;720;47.738;7.998;2023-04-24T15:21:55;13.40;74.30
1453;DHT22;720;47.738;7.998;2023-04-24T15:24:20;13.30;74.40
1453;DHT22;720;47.738;7.998;2023-04-24T15:26:46;13.30;74.70
1453;DHT22;720;47.738;7.998;2023-04-24T15:29:12;13.10;73.80
1453;DHT22;720;47.738;7.998;2023-04-24T15:31:37;13.10;73.60
1453;DHT22;720;47.738;7.998;2023-04-24T15:34:05;12.90;76.10
1453;DHT22;720;47.738;7.998;2023-04-24T15:36:31;13.00;74.70
1453;DHT22;720;47.738;7.998;2023-04-24T15:38:57;13.10;74.80
1453;DHT22;720;47.738;7.998;2023-04-24T15:41:23;13.00;74.90
1453;DHT22;720;47.738;7.998;2023-04-24T15:43:49;12.80;74.10
1453;DHT22;720;47.738;7.998;2023-04-24T15:46:15;12.90;73.50
1453;DHT22;720;47.738;7.998;2023-04-24T15:48:42;12.80;74.20
1453;DHT22;720;47.738;7.998;2023-04-24T15:51:08;12.60;73.20
1453;DHT22;720;47.738;7.998;2023-04-24T15:53:33;12.70;74.60
1453;DHT22;720;47.738;7.998;2023-04-24T15:55:59;12.70;74.60
1453;DHT22;720;47.738;7.998;2023-04-24T15:58:25;12.70;74.70
1453;DHT22;720;47.738;7.998;2023-04-24T16:00:50;12.70;76.20
1453;DHT22;720;47.738;7.998;2023-04-24T16:03:18;12.50;76.00
1453;DHT22;720;47.738;7.998;2023-04-24T16:05:44;12.30;74.70
1453;DHT22;720;47.738;7.998;2023-04-24T16:08:10;12.20;75.30
1453;DHT22;720;47.738;7.998;2023-04-24T16:10:35;12.10;76.20
1453;DHT22;720;47.738;7.998;2023-04-24T16:13:01;12.00;86.80
1453;DHT22;720;47.738;7.998;2023-04-24T16:15:28;12.20;75.40
1453;DHT22;720;47.738;7.998;2023-04-24T16:17:54;11.90;74.60
1453;DHT22;720;47.738;7.998;2023-04-24T16:20:20;11.60;75.00
1453;DHT22;720;47.738;7.998;2023-04-24T16:22:45;11.60;77.10
1453;DHT22;720;47.738;7.998;2023-04-24T16:25:11;11.50;77.30
1453;DHT22;720;47.738;7.998;2023-04-24T16:27:37;11.60;79.30